Time;durP1;ratioP1;P1;durP2;ratioP2;P2;SDS_P1;SDS_P2;PMS_P1;PMS_P2;Temp;Humidity;BMP_temperature;BMP_pressure;BME280_temperature;BME280_humidity;BME280_pressure;Samples;Min_cycle;Max_cycle;Signal;HPM_P1;HPM_P2
2022/01/11 00:01:46;;;;;;;;;;;;;;;5.37;71.02;94425.44;5116433;28;1048;-49
2022/01/11 00:04:15;;;;;;;;;;;;;;;5.37;70.52;94420.13;5116506;28;1064;-49
2022/01/11 00:06:51;;;;;;;;;;;;;;;5.25;71.69;94414.19;5116346;28;1224;-49
2022/01/11 00:09:30;;;;;;;;;;;;;;;5.27;71.57;94426.34;5116690;27;980;-49
2022/01/11 00:11:56;;;;;;;;;;;;;;;5.23;71.32;94427.59;5115845;28;1988;-49
2022/01/11 00:14:22;;;;;;;;;;;;;;;5.21;71.28;94426.09;5116877;28;981;-49
2022/01/11 00:16:48;;;;;;;;;;;;;;;5.26;70.39;94434.44;5116451;28;1063;-49
2022/01/11 00:19:14;;;;;;;;;;;;;;;5.24;70.95;94431.94;5116260;28;1063;-49
2022/01/11 00:21:46;;;;;;;;;;;;;;;5.24;70.53;94444.34;5116243;28;1047;-49
2022/01/11 00:24:32;;;;;;;;;;;;;;;5.25;70.59;94438.91;5116251;28;1083;-49
2022/01/11 00:27:08;;;;;;;;;;;;;;;5.18;70.24;94442.25;5115874;28;1050;-49
2022/01/11 00:29:36;;;;;;;;;;;;;;;5.27;69.81;94444.03;5116139;28;1027;-49
2022/01/11 00:32:10;;;;;;;;;;;;;;;5.28;70.12;94445.72;5115896;28;1995;-49
2022/01/11 00:34:50;;;;;;;;;;;;;;;5.31;70.73;94442.75;5116077;28;1044;-49
2022/01/11 00:37:17;;;;;;;;;;;;;;;5.27;70.55;94442.25;5116317;28;968;-49
2022/01/11 00:39:45;;;;;;;;;;;;;;;5.22;70.81;94459.56;5116344;28;965;-49
2022/01/11 00:42:15;;;;;;;;;;;;;;;5.22;70.49;94454.25;5114421;28;1096;-49
2022/01/11 00:44:41;;;;;;;;;;;;;;;5.18;70.49;94458.16;5116097;28;1037;-49
2022/01/11 00:47:08;;;;;;;;;;;;;;;5.26;70.41;94466.25;5115515;28;1195;-49
2022/01/11 00:49:34;;;;;;;;;;;;;;;5.17;70.68;94467.94;5115749;28;1056;-49
2022/01/11 00:52:02;;;;;;;;;;;;;;;5.06;71.21;94470.75;5115332;28;1914;-49
2022/01/11 00:54:28;;;;;;;;;;;;;;;5.03;71.19;94471.91;5114836;28;1032;-49
2022/01/11 00:56:54;;;;;;;;;;;;;;;5.13;70.40;94469.22;5115478;28;1039;-49
2022/01/11 00:59:20;;;;;;;;;;;;;;;5.31;70.04;94479.88;5115307;28;1057;-49
2022/01/11 01:01:46;;;;;;;;;;;;;;;5.37;70.05;94483.75;5115383;28;977;-49
2022/01/11 01:04:13;;;;;;;;;;;;;;;5.32;69.85;94478.09;5115335;28;1024;-49
2022/01/11 01:06:39;;;;;;;;;;;;;;;5.37;69.68;94484.63;5115043;28;1161;-49
2022/01/11 01:09:06;;;;;;;;;;;;;;;5.29;70.33;94489.78;5115525;28;989;-49
2022/01/11 01:11:32;;;;;;;;;;;;;;;5.22;70.15;94486.91;5113844;28;1905;-49
2022/01/11 01:13:58;;;;;;;;;;;;;;;5.27;70.04;94484.66;5114153;28;1046;-49
2022/01/11 01:16:24;;;;;;;;;;;;;;;5.35;70.05;94494.53;5115105;28;985;-49
2022/01/11 01:18:50;;;;;;;;;;;;;;;5.34;69.89;94494.66;5115191;28;1008;-49
2022/01/11 01:21:17;;;;;;;;;;;;;;;5.28;70.01;94493.44;5114949;28;1071;-49
2022/01/11 01:23:43;;;;;;;;;;;;;;;5.17;70.00;94489.13;5115235;28;972;-49
2022/01/11 01:26:09;;;;;;;;;;;;;;;5.16;70.38;94494.56;5114867;28;1022;-48
2022/01/11 01:28:35;;;;;;;;;;;;;;;5.30;70.00;94498.59;5114863;28;1071;-49
2022/01/11 01:31:02;;;;;;;;;;;;;;;5.19;70.39;94496.94;5114632;28;1913;-49
2022/01/11 01:33:29;;;;;;;;;;;;;;;5.16;70.33;94507.81;5114703;28;920;-49
2022/01/11 01:36:01;;;;;;;;;;;;;;;5.17;70.32;94505.03;5114703;28;1128;-49
2022/01/11 01:38:28;;;;;;;;;;;;;;;5.15;70.12;94507.00;5114419;28;1253;-49
2022/01/11 01:40:58;;;;;;;;;;;;;;;5.12;69.95;94506.44;5114653;28;1147;-48
2022/01/11 01:43:25;;;;;;;;;;;;;;;5.10;70.44;94511.88;5114633;28;1059;-49
2022/01/11 01:45:52;;;;;;;;;;;;;;;5.12;70.12;94512.56;5114608;28;1055;-49
2022/01/11 01:48:18;;;;;;;;;;;;;;;5.11;70.38;94512.75;5113062;28;1410;-49
2022/01/11 01:50:45;;;;;;;;;;;;;;;5.02;70.26;94517.91;5114510;28;1099;-49
2022/01/11 01:53:13;;;;;;;;;;;;;;;4.97;70.14;94511.34;5114422;28;1977;-49
2022/01/11 01:55:40;;;;;;;;;;;;;;;5.02;69.83;94517.06;5114459;28;1044;-49
2022/01/11 01:58:06;;;;;;;;;;;;;;;4.91;70.63;94514.59;5114308;28;1025;-49
2022/01/11 02:00:39;;;;;;;;;;;;;;;4.88;70.54;94518.38;5114163;28;1033;-49
2022/01/11 02:03:06;;;;;;;;;;;;;;;4.85;70.27;94522.09;5114059;28;996;-49
2022/01/11 02:05:32;;;;;;;;;;;;;;;4.66;71.00;94515.03;5113921;28;1238;-49
2022/01/11 02:07:58;;;;;;;;;;;;;;;4.75;70.72;94526.59;5114152;28;984;-49
2022/01/11 02:10:24;;;;;;;;;;;;;;;4.85;70.61;94521.28;5114310;28;1054;-49
2022/01/11 02:12:51;;;;;;;;;;;;;;;4.87;70.16;94511.38;5113818;28;1986;-49
2022/01/11 02:15:17;;;;;;;;;;;;;;;4.96;70.16;94518.47;5114198;28;1000;-49
2022/01/11 02:17:45;;;;;;;;;;;;;;;4.87;70.69;94516.69;5113778;28;1191;-49
2022/01/11 02:20:12;;;;;;;;;;;;;;;4.93;70.24;94521.41;5114174;28;984;-49
2022/01/11 02:22:39;;;;;;;;;;;;;;;5.00;69.96;94524.34;5114017;28;972;-49
2022/01/11 02:25:07;;;;;;;;;;;;;;;4.93;70.08;94533.81;5114055;28;1008;-49
2022/01/11 02:27:33;;;;;;;;;;;;;;;4.93;70.01;94539.94;5113843;28;1051;-48
2022/01/11 02:29:59;;;;;;;;;;;;;;;4.94;70.14;94535.50;5113410;28;1096;-49
2022/01/11 02:32:25;;;;;;;;;;;;;;;4.92;69.68;94535.63;5113702;28;2000;-49
2022/01/11 02:34:51;;;;;;;;;;;;;;;4.91;70.27;94541.06;5113638;28;1041;-49
2022/01/11 02:37:17;;;;;;;;;;;;;;;5.00;69.93;94549.00;5113982;28;1048;-49
2022/01/11 02:39:45;;;;;;;;;;;;;;;5.00;70.33;94546.34;5112561;28;1041;-49
2022/01/11 02:42:11;;;;;;;;;;;;;;;4.83;70.49;94531.19;5113777;28;1043;-49
2022/01/11 02:44:37;;;;;;;;;;;;;;;4.90;70.30;94534.94;5113556;28;1286;-49
2022/01/11 02:47:03;;;;;;;;;;;;;;;5.00;70.33;94535.75;5113556;28;1088;-49
2022/01/11 02:49:29;;;;;;;;;;;;;;;4.85;69.92;94538.00;5112071;28;1060;-49
2022/01/11 02:51:55;;;;;;;;;;;;;;;4.69;70.78;94537.75;5113481;28;1930;-49
2022/01/11 02:54:22;;;;;;;;;;;;;;;4.78;70.26;94536.06;5113614;28;1080;-49
2022/01/11 02:56:48;;;;;;;;;;;;;;;4.80;70.17;94542.06;5113684;28;1164;-49
2022/01/11 02:59:14;;;;;;;;;;;;;;;4.74;70.17;94551.41;5112878;28;1048;-49
2022/01/11 03:01:40;;;;;;;;;;;;;;;4.78;69.97;94547.50;5113540;28;1029;-49
2022/01/11 03:04:07;;;;;;;;;;;;;;;4.86;69.86;94547.63;5113499;28;1055;-49
2022/01/11 03:06:33;;;;;;;;;;;;;;;4.94;69.46;94562.81;5113478;28;1185;-49
2022/01/11 03:08:59;;;;;;;;;;;;;;;4.93;69.67;94560.31;5113385;28;1061;-49
2022/01/11 03:11:31;;;;;;;;;;;;;;;4.73;69.85;94554.22;5113352;28;1913;-49
2022/01/11 03:13:59;;;;;;;;;;;;;;;4.63;70.09;94565.63;5113245;28;956;-49
2022/01/11 03:16:25;;;;;;;;;;;;;;;4.69;69.62;94559.78;5113671;28;1035;-49
2022/01/11 03:18:51;;;;;;;;;;;;;;;4.71;70.12;94559.63;5115747;28;1051;-49
2022/01/11 03:21:17;;;;;;;;;;;;;;;4.68;69.72;94567.84;5117605;28;1052;-49
2022/01/11 03:23:43;;;;;;;;;;;;;;;4.46;69.89;94575.09;5117318;28;1071;-49
2022/01/11 03:26:09;;;;;;;;;;;;;;;4.55;69.82;94573.41;5117359;27;961;-49
2022/01/11 03:28:35;;;;;;;;;;;;;;;4.72;69.70;94569.25;5115964;28;1017;-50
2022/01/11 03:31:01;;;;;;;;;;;;;;;4.85;69.02;94579.56;5117227;28;1910;-49
2022/01/11 03:33:29;;;;;;;;;;;;;;;4.84;69.66;94581.38;5117340;28;1047;-49
2022/01/11 03:35:56;;;;;;;;;;;;;;;4.83;69.74;94581.50;5117168;28;1054;-49
2022/01/11 03:38:22;;;;;;;;;;;;;;;4.86;69.43;94586.53;5117151;28;1088;-49
2022/01/11 03:40:49;;;;;;;;;;;;;;;4.79;69.70;94588.91;5116932;28;1901;-49
2022/01/11 03:43:21;;;;;;;;;;;;;;;4.60;70.30;94591.53;5116290;28;1217;-49
2022/01/11 03:45:48;;;;;;;;;;;;;;;4.52;69.77;94583.47;5117074;28;1056;-49
2022/01/11 03:48:15;;;;;;;;;;;;;;;4.51;70.13;94582.59;5117073;28;1033;-49
2022/01/11 03:50:48;;;;;;;;;;;;;;;4.58;70.24;94589.03;5115466;28;1310;-49
2022/01/11 03:53:16;;;;;;;;;;;;;;;4.58;69.83;94589.03;5116858;28;1967;-49
2022/01/11 03:55:58;;;;;;;;;;;;;;;4.57;69.96;94590.03;5116701;28;980;-49
2022/01/11 03:58:26;;;;;;;;;;;;;;;4.53;69.78;94601.00;5117063;28;952;-49
2022/01/11 04:00:53;;;;;;;;;;;;;;;4.50;70.12;94597.66;5116293;28;1079;-49
2022/01/11 04:03:19;;;;;;;;;;;;;;;4.56;69.58;94590.97;5116764;28;977;-49
2022/01/11 04:05:46;;;;;;;;;;;;;;;4.54;69.93;94592.09;5116348;28;1157;-49
2022/01/11 04:08:12;;;;;;;;;;;;;;;4.42;69.56;94592.22;5116464;28;1028;-49
2022/01/11 04:10:38;;;;;;;;;;;;;;;4.47;69.69;94597.94;5116297;28;1028;-49
2022/01/11 04:13:04;;;;;;;;;;;;;;;4.35;69.79;94603.50;5116206;28;1984;-49
2022/01/11 04:15:30;;;;;;;;;;;;;;;4.32;70.17;94612.53;5116218;28;1875;-49
2022/01/11 04:17:56;;;;;;;;;;;;;;;4.32;69.75;94617.00;5116379;28;1043;-49
2022/01/11 04:20:22;;;;;;;;;;;;;;;4.32;69.87;94604.59;5115232;28;1908;-49
2022/01/11 04:22:49;;;;;;;;;;;;;;;4.23;69.75;94610.69;5116376;28;1047;-49
2022/01/11 04:25:16;;;;;;;;;;;;;;;4.28;70.02;94601.38;5115929;28;1112;-49
2022/01/11 04:27:42;;;;;;;;;;;;;;;4.32;70.17;94601.94;5116209;28;1053;-49
2022/01/11 04:30:08;;;;;;;;;;;;;;;4.30;70.18;94596.78;5115801;28;1008;-49
2022/01/11 04:32:34;;;;;;;;;;;;;;;4.28;69.64;94609.31;5115796;28;1909;-49
2022/01/11 04:35:00;;;;;;;;;;;;;;;4.35;69.23;94614.09;5115828;28;1286;-49
2022/01/11 04:37:27;;;;;;;;;;;;;;;4.41;69.88;94603.78;5116002;28;1013;-49
2022/01/11 04:39:53;;;;;;;;;;;;;;;4.45;69.96;94610.47;5115986;28;985;-49
2022/01/11 04:42:19;;;;;;;;;;;;;;;4.42;70.06;94608.13;5115822;28;1399;-49
2022/01/11 04:44:45;;;;;;;;;;;;;;;4.49;70.16;94603.09;5115851;28;1020;-49
2022/01/11 04:47:11;;;;;;;;;;;;;;;4.53;69.29;94623.03;5115712;28;1967;-49
2022/01/11 04:49:37;;;;;;;;;;;;;;;4.44;70.17;94627.34;5115795;28;977;-49
2022/01/11 04:52:04;;;;;;;;;;;;;;;4.33;70.12;94631.91;5115465;28;1917;-49
2022/01/11 04:54:30;;;;;;;;;;;;;;;4.25;69.79;94629.91;5115625;28;1047;-49
2022/01/11 04:56:57;;;;;;;;;;;;;;;4.26;69.16;94629.78;5115537;28;968;-49
2022/01/11 04:59:24;;;;;;;;;;;;;;;4.28;68.84;94635.78;5115133;28;1089;-49
2022/01/11 05:01:50;;;;;;;;;;;;;;;4.25;68.95;94640.50;5115451;28;1016;-49
2022/01/11 05:04:16;;;;;;;;;;;;;;;4.21;69.52;94633.81;5115547;28;981;-49
2022/01/11 05:06:42;;;;;;;;;;;;;;;4.17;69.60;94649.13;5115199;28;1165;-49
2022/01/11 05:09:08;;;;;;;;;;;;;;;4.15;68.82;94650.25;5115189;28;1025;-49
2022/01/11 05:11:34;;;;;;;;;;;;;;;4.01;69.70;94659.38;5115116;28;1906;-49
2022/01/11 05:14:00;;;;;;;;;;;;;;;4.06;69.35;94671.25;5115372;28;1017;-49
2022/01/11 05:16:27;;;;;;;;;;;;;;;4.02;69.20;94666.34;5115139;28;1033;-49
2022/01/11 05:18:53;;;;;;;;;;;;;;;4.08;68.75;94653.44;5115262;28;993;-49
2022/01/11 05:21:19;;;;;;;;;;;;;;;4.11;68.87;94669.00;5114967;28;1054;-49
2022/01/11 05:23:45;;;;;;;;;;;;;;;4.01;68.88;94660.22;5115494;28;1017;-49
2022/01/11 05:26:11;;;;;;;;;;;;;;;3.96;69.17;94665.06;5114797;28;1065;-49
2022/01/11 05:28:37;;;;;;;;;;;;;;;4.03;68.52;94663.56;5115108;28;989;-49
2022/01/11 05:31:03;;;;;;;;;;;;;;;4.01;69.02;94670.78;5114536;28;1971;-49
2022/01/11 05:33:30;;;;;;;;;;;;;;;4.00;68.94;94674.41;5114877;28;1029;-49
2022/01/11 05:35:56;;;;;;;;;;;;;;;3.91;68.81;94673.41;5114691;28;988;-49
2022/01/11 05:38:22;;;;;;;;;;;;;;;3.79;69.71;94669.16;5114733;28;1011;-49
2022/01/11 05:40:48;;;;;;;;;;;;;;;3.78;69.33;94671.97;5114301;28;957;-49
2022/01/11 05:43:14;;;;;;;;;;;;;;;3.81;68.67;94674.31;5114604;27;1985;-49
2022/01/11 05:45:41;;;;;;;;;;;;;;;3.78;68.44;94677.25;5114630;28;961;-49
2022/01/11 05:48:07;;;;;;;;;;;;;;;3.83;68.13;94682.94;5115028;28;968;-49
2022/01/11 05:50:34;;;;;;;;;;;;;;;3.80;68.81;94684.06;5114446;28;1119;-49
2022/01/11 05:53:00;;;;;;;;;;;;;;;3.75;68.28;94696.84;5114137;28;1905;-49
2022/01/11 05:55:26;;;;;;;;;;;;;;;3.79;68.41;94700.06;5114645;28;996;-49
2022/01/11 05:57:52;;;;;;;;;;;;;;;3.79;68.57;94703.53;5114111;28;1088;-49
2022/01/11 06:00:19;;;;;;;;;;;;;;;3.77;68.13;94694.06;5114133;28;1017;-49
2022/01/11 06:02:46;;;;;;;;;;;;;;;3.74;68.45;94694.31;5114260;28;965;-49
2022/01/11 06:05:13;;;;;;;;;;;;;;;3.75;68.29;94707.41;5114253;27;1016;-49
2022/01/11 06:07:39;;;;;;;;;;;;;;;3.88;68.42;94717.78;5113927;28;1216;-49
2022/01/11 06:10:06;;;;;;;;;;;;;;;3.77;67.93;94709.94;5114442;28;973;-49
2022/01/11 06:12:32;;;;;;;;;;;;;;;3.76;68.26;94724.97;5113900;28;1937;-49
2022/01/11 06:14:58;;;;;;;;;;;;;;;3.76;68.57;94726.78;5114163;28;976;-49
2022/01/11 06:17:24;;;;;;;;;;;;;;;3.73;67.85;94727.84;5113845;28;1060;-48
2022/01/11 06:19:50;;;;;;;;;;;;;;;3.71;68.22;94745.66;5114000;28;1017;-49
2022/01/11 06:22:16;;;;;;;;;;;;;;;3.66;67.97;94748.72;5113715;28;961;-49
2022/01/11 06:24:42;;;;;;;;;;;;;;;3.53;68.14;94740.13;5114195;28;984;-49
2022/01/11 06:27:08;;;;;;;;;;;;;;;3.61;68.20;94745.59;5113672;28;1041;-49
2022/01/11 06:29:34;;;;;;;;;;;;;;;3.62;67.33;94757.00;5113864;28;1028;-49
2022/01/11 06:32:00;;;;;;;;;;;;;;;3.52;67.73;94749.00;5113718;28;1992;-49
2022/01/11 06:34:26;;;;;;;;;;;;;;;3.54;68.35;94759.47;5113826;28;1120;-49
2022/01/11 06:36:52;;;;;;;;;;;;;;;3.53;68.41;94769.19;5113477;28;1041;-49
2022/01/11 06:39:18;;;;;;;;;;;;;;;3.60;68.36;94773.00;5113612;28;1319;-49
2022/01/11 06:41:44;;;;;;;;;;;;;;;3.69;67.36;94772.22;5113795;28;1016;-49
2022/01/11 06:44:10;;;;;;;;;;;;;;;3.66;67.79;94767.22;5113794;28;973;-49
2022/01/11 06:46:37;;;;;;;;;;;;;;;3.67;67.66;94774.16;5113778;28;1036;-49
2022/01/11 06:49:04;;;;;;;;;;;;;;;3.75;67.29;94776.16;5113585;28;1051;-49
2022/01/11 06:51:31;;;;;;;;;;;;;;;3.78;67.43;94773.28;5113513;28;1902;-49
2022/01/11 06:53:57;;;;;;;;;;;;;;;3.80;67.12;94773.16;5116366;28;1005;-49
2022/01/11 06:56:24;;;;;;;;;;;;;;;3.87;66.35;94774.28;5118128;28;968;-49
2022/01/11 06:58:50;;;;;;;;;;;;;;;3.96;66.86;94770.88;5117860;28;1008;-49
2022/01/11 07:01:16;;;;;;;;;;;;;;;3.87;66.69;94784.88;5117851;28;1037;-49
2022/01/11 07:03:42;;;;;;;;;;;;;;;3.93;66.64;94789.66;5117713;27;1051;-49
2022/01/11 07:06:08;;;;;;;;;;;;;;;4.01;66.73;94796.94;5117529;28;1180;-49
2022/01/11 07:08:34;;;;;;;;;;;;;;;3.93;66.68;94808.16;5117754;28;1015;-49
2022/01/11 07:11:00;;;;;;;;;;;;;;;3.75;66.32;94813.19;5116357;28;1037;-49
2022/01/11 07:13:26;;;;;;;;;;;;;;;3.85;66.81;94815.91;5117145;28;1905;-49
2022/01/11 07:15:52;;;;;;;;;;;;;;;3.95;66.81;94813.34;5116534;28;1330;-49
2022/01/11 07:18:19;;;;;;;;;;;;;;;3.95;66.60;94832.69;5117144;28;1060;-49
2022/01/11 07:20:45;;;;;;;;;;;;;;;3.89;66.43;94822.63;5117424;28;964;-49
2022/01/11 07:23:11;;;;;;;;;;;;;;;3.99;66.43;94826.16;5116206;28;2055;-49
2022/01/11 07:25:37;;;;;;;;;;;;;;;3.92;66.74;94832.94;5117391;28;1060;-49
2022/01/11 07:28:04;;;;;;;;;;;;;;;3.90;66.55;94824.28;5117274;28;988;-49
2022/01/11 07:30:31;;;;;;;;;;;;;;;4.00;66.23;94829.63;5117052;28;1118;-49
2022/01/11 07:32:57;;;;;;;;;;;;;;;4.05;65.86;94849.44;5115663;28;1949;-49
2022/01/11 07:35:23;;;;;;;;;;;;;;;4.10;65.54;94847.28;5117199;28;1119;-49
2022/01/11 07:37:51;;;;;;;;;;;;;;;4.14;65.54;94852.31;5115975;28;969;-49
2022/01/11 07:40:17;;;;;;;;;;;;;;;4.34;65.32;94853.25;5116907;28;1060;-49
2022/01/11 07:42:43;;;;;;;;;;;;;;;4.25;65.23;94852.22;5115546;28;1019;-49
2022/01/11 07:45:09;;;;;;;;;;;;;;;4.11;65.15;94851.56;5116866;28;1025;-49
2022/01/11 07:47:35;;;;;;;;;;;;;;;4.09;65.54;94857.97;5116914;28;983;-49
2022/01/11 07:50:03;;;;;;;;;;;;;;;4.21;64.98;94856.97;5116637;27;1013;-49
2022/01/11 07:52:29;;;;;;;;;;;;;;;4.44;64.87;94862.94;5116995;28;1910;-49
2022/01/11 07:54:57;;;;;;;;;;;;;;;4.41;64.19;94865.00;5116735;28;1054;-49
2022/01/11 07:57:23;;;;;;;;;;;;;;;4.44;64.66;94868.25;5116821;28;1025;-49
2022/01/11 07:59:49;;;;;;;;;;;;;;;4.50;63.86;94861.59;5116417;28;1016;-47
2022/01/11 08:02:15;;;;;;;;;;;;;;;4.46;64.09;94855.72;5116548;28;1057;-49
2022/01/11 08:04:41;;;;;;;;;;;;;;;4.41;64.23;94865.84;5115924;28;963;-49
2022/01/11 08:07:07;;;;;;;;;;;;;;;4.42;64.09;94883.41;5116653;28;1165;-49
2022/01/11 08:09:33;;;;;;;;;;;;;;;4.48;64.28;94888.19;5116203;28;1068;-48
2022/01/11 08:12:00;;;;;;;;;;;;;;;4.42;64.16;94896.66;5116110;28;1913;-49
2022/01/11 08:14:26;;;;;;;;;;;;;;;4.41;64.17;94888.84;5116237;28;1037;-49
2022/01/11 08:16:52;;;;;;;;;;;;;;;4.52;63.91;94899.34;5116385;28;1028;-49
2022/01/11 08:19:24;;;;;;;;;;;;;;;4.55;63.42;94900.88;5114878;28;1978;-49
2022/01/11 08:21:57;;;;;;;;;;;;;;;4.39;62.83;94896.91;5116186;28;1097;-49
2022/01/11 08:24:23;;;;;;;;;;;;;;;4.41;63.61;94899.41;5116274;28;1040;-49
2022/01/11 08:26:50;;;;;;;;;;;;;;;4.46;64.04;94915.75;5116373;28;1047;-49
2022/01/11 08:29:18;;;;;;;;;;;;;;;4.47;63.18;94912.97;5115862;28;1059;-49
2022/01/11 08:31:47;;;;;;;;;;;;;;;4.48;63.21;94911.19;5116513;27;1906;-49
2022/01/11 08:34:14;;;;;;;;;;;;;;;4.58;63.05;94912.06;5115845;28;1874;-49
2022/01/11 08:36:41;;;;;;;;;;;;;;;4.65;63.56;94925.63;5116047;28;1033;-49
2022/01/11 08:39:08;;;;;;;;;;;;;;;4.67;62.47;94918.41;5115902;28;988;-49
2022/01/11 08:41:34;;;;;;;;;;;;;;;4.65;62.79;94912.41;5116111;28;1055;-49
2022/01/11 08:44:01;;;;;;;;;;;;;;;4.62;62.96;94933.84;5115711;28;1164;-49
2022/01/11 08:46:27;;;;;;;;;;;;;;;4.61;63.84;94933.00;5115767;28;1032;-49
2022/01/11 08:48:53;;;;;;;;;;;;;;;4.55;62.92;94936.13;5115543;28;1885;-49
2022/01/11 08:51:19;;;;;;;;;;;;;;;4.55;63.28;94948.56;5115616;28;2046;-49
2022/01/11 08:53:45;;;;;;;;;;;;;;;4.47;63.14;94947.38;5115713;28;1047;-49
2022/01/11 08:56:15;;;;;;;;;;;;;;;4.37;62.99;94961.53;5115567;28;1211;-49
2022/01/11 08:58:41;;;;;;;;;;;;;;;4.41;63.07;94944.44;5115582;28;1100;-49
2022/01/11 09:01:07;;;;;;;;;;;;;;;4.53;62.61;94946.03;5115035;28;969;-49
2022/01/11 09:03:33;;;;;;;;;;;;;;;4.64;62.68;94947.78;5115502;28;1884;-49
2022/01/11 09:05:59;;;;;;;;;;;;;;;4.65;63.10;94933.59;5115226;28;1157;-49
2022/01/11 09:08:25;;;;;;;;;;;;;;;4.74;62.81;94938.06;5115609;28;1055;-49
2022/01/11 09:10:51;;;;;;;;;;;;;;;4.72;62.08;94933.88;5115264;28;1019;-49
2022/01/11 09:13:19;;;;;;;;;;;;;;;4.67;63.08;94940.41;5115144;28;1906;-49
2022/01/11 09:15:45;;;;;;;;;;;;;;;4.68;62.45;94936.78;5114205;28;1040;-49
2022/01/11 09:18:12;;;;;;;;;;;;;;;4.74;62.17;94948.66;5115174;28;1037;-49
2022/01/11 09:20:38;;;;;;;;;;;;;;;4.88;62.44;94947.50;5115027;28;1036;-49
2022/01/11 09:23:04;;;;;;;;;;;;;;;4.88;62.26;94939.56;5115025;28;1064;-49
2022/01/11 09:25:30;;;;;;;;;;;;;;;4.80;61.66;94940.22;5115030;28;1051;-49
2022/01/11 09:27:56;;;;;;;;;;;;;;;4.94;62.00;94949.63;5114619;28;1089;-49
2022/01/11 09:30:22;;;;;;;;;;;;;;;5.00;61.33;94927.06;5114512;28;980;-49
2022/01/11 09:32:49;;;;;;;;;;;;;;;4.95;61.39;94932.78;5115009;28;1901;-49
2022/01/11 09:35:15;;;;;;;;;;;;;;;4.87;62.06;94929.91;5114669;28;1130;-48
2022/01/11 09:37:41;;;;;;;;;;;;;;;4.81;61.83;94925.16;5114857;28;1061;-49
2022/01/11 09:40:09;;;;;;;;;;;;;;;4.79;61.46;94935.88;5114679;28;973;-49
2022/01/11 09:42:35;;;;;;;;;;;;;;;4.72;62.18;94939.19;5114773;28;988;-49
2022/01/11 09:45:04;;;;;;;;;;;;;;;4.64;62.14;94945.97;5114406;28;968;-48
2022/01/11 09:47:30;;;;;;;;;;;;;;;4.69;62.60;94945.59;5114801;28;985;-50
2022/01/11 09:49:56;;;;;;;;;;;;;;;4.72;62.66;94944.47;5114552;28;1059;-49
2022/01/11 09:52:24;;;;;;;;;;;;;;;4.78;62.48;94946.59;5114427;28;1882;-48
2022/01/11 09:54:50;;;;;;;;;;;;;;;4.99;61.98;94935.97;5113243;28;1171;-48
2022/01/11 09:57:17;;;;;;;;;;;;;;;4.96;61.65;94942.38;5114509;28;1016;-49
2022/01/11 09:59:43;;;;;;;;;;;;;;;4.93;62.05;94931.19;5113914;28;1041;-49
2022/01/11 10:02:11;;;;;;;;;;;;;;;4.71;62.09;94937.53;5114453;28;941;-49
2022/01/11 10:04:37;;;;;;;;;;;;;;;4.78;62.16;94942.16;5114411;28;1020;-49
2022/01/11 10:07:08;;;;;;;;;;;;;;;4.84;62.76;94954.03;5114242;28;1204;-48
2022/01/11 10:09:44;;;;;;;;;;;;;;;4.88;61.83;94935.09;5114332;28;1239;-49
2022/01/11 10:15:35;;;;;;;;;;;;;;;5.10;61.25;94943.81;4751893;28;2001;-49
2022/01/11 10:18:03;;;;;;;;;;;;;;;5.38;60.67;94938.78;5114155;28;1119;-49
2022/01/11 10:20:29;;;;;;;;;;;;;;;5.54;60.28;94935.63;5113834;28;1025;-50
2022/01/11 10:22:56;;;;;;;;;;;;;;;5.47;60.26;94933.50;5114001;28;1122;-49
2022/01/11 10:25:23;;;;;;;;;;;;;;;5.30;60.50;94934.16;5112859;28;980;-49
2022/01/11 10:28:03;;;;;;;;;;;;;;;5.39;60.65;94937.81;5113982;28;996;-48
2022/01/11 10:30:30;;;;;;;;;;;;;;;5.42;60.52;94937.53;5113679;28;1032;-49
2022/01/11 10:32:57;;;;;;;;;;;;;;;5.42;60.60;94945.50;5114283;28;2004;-49
2022/01/11 10:35:29;;;;;;;;;;;;;;;5.35;60.36;94941.69;5113928;28;961;-49
2022/01/11 10:37:56;;;;;;;;;;;;;;;5.23;61.32;94943.63;5113770;28;1041;-49
2022/01/11 10:40:23;;;;;;;;;;;;;;;5.11;61.19;94947.34;5113831;28;1000;-49
2022/01/11 10:42:55;;;;;;;;;;;;;;;4.93;61.73;94958.53;5113726;28;1026;-49
2022/01/11 10:45:28;;;;;;;;;;;;;;;4.92;62.04;94954.22;5113743;28;972;-49
2022/01/11 10:47:56;;;;;;;;;;;;;;;5.11;61.41;94953.47;5113621;28;988;-49
2022/01/11 10:50:27;;;;;;;;;;;;;;;5.02;62.20;94951.63;5113911;28;1035;-50
2022/01/11 10:52:54;;;;;;;;;;;;;;;5.29;60.94;94948.38;5113510;28;1917;-49
2022/01/11 10:55:22;;;;;;;;;;;;;;;5.44;59.92;94948.84;5113733;28;965;-49
2022/01/11 10:57:50;;;;;;;;;;;;;;;6.01;59.32;94946.50;5113507;28;1037;-49
2022/01/11 11:00:18;;;;;;;;;;;;;;;6.11;59.22;94955.31;5113259;28;1280;-49
2022/01/11 11:03:13;;;;;;;;;;;;;;;6.19;57.85;94960.75;5113638;28;1016;-50
2022/01/11 11:05:44;;;;;;;;;;;;;;;6.33;57.57;94956.84;5111636;28;1209;-49
2022/01/11 11:08:10;;;;;;;;;;;;;;;5.93;58.94;94952.44;5113556;28;949;-49
2022/01/11 11:10:47;;;;;;;;;;;;;;;5.71;59.12;94952.69;5113385;28;1036;-49
2022/01/11 11:13:22;;;;;;;;;;;;;;;5.48;59.36;94948.47;5113592;28;1913;-49
2022/01/11 11:15:51;;;;;;;;;;;;;;;5.18;60.69;94951.97;5113138;28;1230;-50
2022/01/11 11:18:28;;;;;;;;;;;;;;;5.39;59.68;94948.44;5113791;28;1025;-49
2022/01/11 11:20:54;;;;;;;;;;;;;;;5.41;59.46;94963.22;5113221;28;1025;-49
2022/01/11 11:23:21;;;;;;;;;;;;;;;5.31;58.77;94964.97;5113302;28;1120;-49
2022/01/11 11:25:47;;;;;;;;;;;;;;;5.62;58.72;94955.19;5113516;28;1030;-49
2022/01/11 11:28:14;;;;;;;;;;;;;;;6.02;57.08;94958.78;5113362;28;1040;-49
2022/01/11 11:30:40;;;;;;;;;;;;;;;5.95;57.39;94954.97;5113216;28;1051;-49
2022/01/11 11:33:06;;;;;;;;;;;;;;;6.41;56.46;94948.16;5113109;28;1987;-49
2022/01/11 11:35:33;;;;;;;;;;;;;;;6.79;55.52;94947.31;5113309;28;965;-50
2022/01/11 11:38:02;;;;;;;;;;;;;;;6.31;56.07;94956.13;5112928;28;976;-50
2022/01/11 11:40:29;;;;;;;;;;;;;;;6.13;57.01;94941.88;5116795;28;1116;-49
2022/01/11 11:42:59;;;;;;;;;;;;;;;5.93;57.03;94944.50;5116858;28;1193;-50
2022/01/11 11:45:27;;;;;;;;;;;;;;;5.68;57.72;94946.69;5117244;28;1052;-50
2022/01/11 11:48:06;;;;;;;;;;;;;;;5.57;58.00;94951.25;5116845;28;1040;-49
2022/01/11 11:50:33;;;;;;;;;;;;;;;5.38;58.32;94946.75;5116898;28;1024;-50
2022/01/11 11:52:59;;;;;;;;;;;;;;;5.52;57.93;94943.72;5116786;28;1914;-49
2022/01/11 11:55:29;;;;;;;;;;;;;;;5.34;57.92;94946.16;5116976;28;977;-49
2022/01/11 11:58:05;;;;;;;;;;;;;;;5.21;58.81;94950.84;5116648;28;981;-50
2022/01/11 12:00:32;;;;;;;;;;;;;;;5.03;59.33;94954.13;5116618;28;1040;-49
2022/01/11 12:02:59;;;;;;;;;;;;;;;5.16;59.02;94961.88;5116414;28;977;-50
2022/01/11 12:05:34;;;;;;;;;;;;;;;5.05;59.28;94956.66;5116891;28;1005;-50
2022/01/11 12:08:20;;;;;;;;;;;;;;;4.84;59.04;94962.81;5096158;28;1035;-49
2022/01/11 12:10:53;;;;;;;;;;;;;;;4.63;60.71;94965.47;5094925;28;2021;-49
2022/01/11 12:13:43;;;;;;;;;;;;;;;4.57;59.65;94973.94;5095838;28;1909;-49
2022/01/11 12:16:24;;;;;;;;;;;;;;;4.34;59.18;94993.53;5087993;28;2296;-50
2022/01/11 12:18:54;;;;;;;;;;;;;;;4.11;59.68;94986.53;5095909;28;1017;-49
2022/01/11 12:21:21;;;;;;;;;;;;;;;4.18;60.56;94988.69;5095991;28;1064;-50
2022/01/11 12:23:49;;;;;;;;;;;;;;;4.18;59.95;94994.81;5095765;28;1056;-49
2022/01/11 12:26:20;;;;;;;;;;;;;;;4.19;60.15;94985.91;5096096;28;1641;-49
2022/01/11 12:29:02;;;;;;;;;;;;;;;4.27;59.90;94987.94;5095875;28;1051;-49
2022/01/11 12:31:29;;;;;;;;;;;;;;;4.23;59.76;94975.91;5095621;28;1914;-50
2022/01/11 12:33:56;;;;;;;;;;;;;;;4.03;60.23;94993.41;5095478;28;1105;-50
2022/01/11 12:36:22;;;;;;;;;;;;;;;4.05;60.00;94981.75;5095610;28;956;-49
2022/01/11 12:39:02;;;;;;;;;;;;;;;4.04;59.58;94988.00;5095447;28;1871;-50
2022/01/11 12:41:35;;;;;;;;;;;;;;;4.06;59.73;94991.38;5095728;28;961;-49
2022/01/11 12:44:23;;;;;;;;;;;;;;;4.07;59.64;94995.69;5095442;28;1047;-49
2022/01/11 12:46:54;;;;;;;;;;;;;;;4.04;59.69;95003.03;5095493;28;1052;-49
2022/01/11 12:49:21;;;;;;;;;;;;;;;4.01;59.30;95004.13;5095536;28;984;-49
2022/01/11 12:51:52;;;;;;;;;;;;;;;4.00;59.51;94999.78;5094252;28;1910;-50
2022/01/11 12:54:23;;;;;;;;;;;;;;;4.05;59.89;95002.91;5095175;28;1112;-49
2022/01/11 12:56:54;;;;;;;;;;;;;;;3.99;60.51;95003.41;5095357;28;1009;-49
2022/01/11 12:59:21;;;;;;;;;;;;;;;4.03;60.34;95006.66;5094806;28;1085;-49
2022/01/11 13:01:56;;;;;;;;;;;;;;;4.08;59.52;95007.13;5095140;28;1041;-49
2022/01/11 13:04:34;;;;;;;;;;;;;;;4.09;60.44;95001.69;5095219;28;1055;-49
2022/01/11 13:07:09;;;;;;;;;;;;;;;4.22;59.50;95008.63;5107500;28;1142;-49
2022/01/11 13:09:36;;;;;;;;;;;;;;;4.35;60.48;95017.25;5115311;28;1096;-50
2022/01/11 13:12:02;;;;;;;;;;;;;;;4.31;59.42;95015.81;5115133;28;1914;-50
2022/01/11 13:14:37;;;;;;;;;;;;;;;4.22;59.52;95014.75;5115154;28;1104;-50
2022/01/11 13:17:04;;;;;;;;;;;;;;;4.03;60.31;95014.59;5115389;28;992;-50